sensor_id;sensor_type;location;lat;lon;timestamp;P1;durP1;ratioP1;P2;durP2;ratioP2
57457;SDS011;43304;52.332;6.110;2023-04-01T00:02:27;21.33;;;9.70;;
57457;SDS011;43304;52.332;6.110;2023-04-01T00:04:54;21.55;;;9.45;;
57457;SDS011;43304;52.332;6.110;2023-04-01T00:07:21;18.30;;;9.47;;
57457;SDS011;43304;52.332;6.110;2023-04-01T00:09:48;20.25;;;9.07;;
57457;SDS011;43304;52.332;6.110;2023-04-01T00:12:14;18.80;;;8.98;;
57457;SDS011;43304;52.332;6.110;2023-04-01T00:14:42;16.90;;;8.68;;
57457;SDS011;43304;52.332;6.110;2023-04-01T00:17:09;20.97;;;8.77;;
57457;SDS011;43304;52.332;6.110;2023-04-01T00:19:36;20.20;;;9.38;;
57457;SDS011;43304;52.332;6.110;2023-04-01T00:22:03;16.92;;;8.88;;
57457;SDS011;43304;52.332;6.110;2023-04-01T00:24:30;21.50;;;9.38;;
57457;SDS011;43304;52.332;6.110;2023-04-01T00:26:57;21.07;;;9.40;;
57457;SDS011;43304;52.332;6.110;2023-04-01T00:29:24;18.73;;;9.13;;
57457;SDS011;43304;52.332;6.110;2023-04-01T00:31:56;18.13;;;9.20;;
57457;SDS011;43304;52.332;6.110;2023-04-01T00:34:23;19.27;;;9.20;;
57457;SDS011;43304;52.332;6.110;2023-04-01T00:36:51;23.83;;;10.30;;
57457;SDS011;43304;52.332;6.110;2023-04-01T00:39:19;21.90;;;9.90;;
57457;SDS011;43304;52.332;6.110;2023-04-01T00:41:47;25.65;;;10.18;;
57457;SDS011;43304;52.332;6.110;2023-04-01T00:44:21;23.42;;;9.93;;
57457;SDS011;43304;52.332;6.110;2023-04-01T00:46:50;26.73;;;10.30;;
57457;SDS011;43304;52.332;6.110;2023-04-01T00:49:20;18.75;;;9.52;;
57457;SDS011;43304;52.332;6.110;2023-04-01T00:51:53;26.63;;;10.40;;
57457;SDS011;43304;52.332;6.110;2023-04-01T00:54:21;19.80;;;9.13;;
57457;SDS011;43304;52.332;6.110;2023-04-01T00:56:50;18.00;;;8.80;;
57457;SDS011;43304;52.332;6.110;2023-04-01T00:59:23;22.08;;;10.05;;
57457;SDS011;43304;52.332;6.110;2023-04-01T01:01:52;17.08;;;8.95;;
57457;SDS011;43304;52.332;6.110;2023-04-01T01:04:26;19.20;;;9.63;;
57457;SDS011;43304;52.332;6.110;2023-04-01T01:07:00;22.10;;;10.05;;
57457;SDS011;43304;52.332;6.110;2023-04-01T01:10:00;18.70;;;9.82;;
57457;SDS011;43304;52.332;6.110;2023-04-01T01:12:35;25.20;;;11.00;;
57457;SDS011;43304;52.332;6.110;2023-04-01T01:15:15;22.77;;;11.40;;
57457;SDS011;43304;52.332;6.110;2023-04-01T01:20:35;28.35;;;12.32;;
57457;SDS011;43304;52.332;6.110;2023-04-01T01:37:06;36.58;;;15.38;;
57457;SDS011;43304;52.332;6.110;2023-04-01T01:39:36;40.30;;;16.05;;
57457;SDS011;43304;52.332;6.110;2023-04-01T01:42:05;36.65;;;15.80;;
57457;SDS011;43304;52.332;6.110;2023-04-01T01:44:33;43.10;;;16.92;;
57457;SDS011;43304;52.332;6.110;2023-04-01T01:47:02;50.13;;;17.33;;
57457;SDS011;43304;52.332;6.110;2023-04-01T01:49:29;49.45;;;17.80;;
57457;SDS011;43304;52.332;6.110;2023-04-01T01:51:58;49.38;;;17.98;;
57457;SDS011;43304;52.332;6.110;2023-04-01T01:54:25;65.47;;;19.90;;
57457;SDS011;43304;52.332;6.110;2023-04-01T01:56:55;52.05;;;19.05;;
57457;SDS011;43304;52.332;6.110;2023-04-01T01:59:34;55.67;;;19.25;;
57457;SDS011;43304;52.332;6.110;2023-04-01T02:02:02;63.10;;;19.85;;
57457;SDS011;43304;52.332;6.110;2023-04-01T02:04:35;57.28;;;19.98;;
57457;SDS011;43304;52.332;6.110;2023-04-01T02:07:03;60.42;;;19.98;;
57457;SDS011;43304;52.332;6.110;2023-04-01T02:09:33;58.42;;;20.20;;
57457;SDS011;43304;52.332;6.110;2023-04-01T02:12:02;56.92;;;20.45;;
57457;SDS011;43304;52.332;6.110;2023-04-01T02:14:37;75.70;;;21.93;;
57457;SDS011;43304;52.332;6.110;2023-04-01T02:17:12;61.63;;;20.52;;
57457;SDS011;43304;52.332;6.110;2023-04-01T02:19:52;61.10;;;20.75;;
57457;SDS011;43304;52.332;6.110;2023-04-01T02:22:29;49.93;;;19.57;;
57457;SDS011;43304;52.332;6.110;2023-04-01T02:24:59;69.78;;;21.27;;
57457;SDS011;43304;52.332;6.110;2023-04-01T02:27:30;56.05;;;20.17;;
57457;SDS011;43304;52.332;6.110;2023-04-01T02:29:57;62.35;;;20.15;;
57457;SDS011;43304;52.332;6.110;2023-04-01T02:32:24;54.00;;;19.67;;
57457;SDS011;43304;52.332;6.110;2023-04-01T02:34:53;58.92;;;20.23;;
57457;SDS011;43304;52.332;6.110;2023-04-01T02:37:20;61.80;;;19.98;;
57457;SDS011;43304;52.332;6.110;2023-04-01T02:39:47;58.22;;;20.17;;
57457;SDS011;43304;52.332;6.110;2023-04-01T02:42:14;53.43;;;19.70;;
57457;SDS011;43304;52.332;6.110;2023-04-01T02:44:41;57.45;;;20.33;;
57457;SDS011;43304;52.332;6.110;2023-04-01T02:47:08;51.85;;;20.65;;
57457;SDS011;43304;52.332;6.110;2023-04-01T02:49:35;66.43;;;21.85;;
57457;SDS011;43304;52.332;6.110;2023-04-01T02:52:02;62.20;;;21.58;;
57457;SDS011;43304;52.332;6.110;2023-04-01T02:54:29;63.92;;;22.15;;
57457;SDS011;43304;52.332;6.110;2023-04-01T02:56:56;60.72;;;22.25;;
57457;SDS011;43304;52.332;6.110;2023-04-01T02:59:24;78.15;;;23.58;;
57457;SDS011;43304;52.332;6.110;2023-04-01T03:01:51;68.88;;;23.98;;
57457;SDS011;43304;52.332;6.110;2023-04-01T03:04:17;76.30;;;25.00;;
57457;SDS011;43304;52.332;6.110;2023-04-01T03:06:45;79.53;;;25.55;;
57457;SDS011;43304;52.332;6.110;2023-04-01T03:09:12;64.80;;;25.67;;
57457;SDS011;43304;52.332;6.110;2023-04-01T03:11:38;102.88;;;28.63;;
57457;SDS011;43304;52.332;6.110;2023-04-01T03:14:07;75.97;;;27.08;;
57457;SDS011;43304;52.332;6.110;2023-04-01T03:16:34;70.77;;;26.93;;
57457;SDS011;43304;52.332;6.110;2023-04-01T03:19:01;73.28;;;27.73;;
57457;SDS011;43304;52.332;6.110;2023-04-01T03:21:28;82.88;;;29.00;;
57457;SDS011;43304;52.332;6.110;2023-04-01T03:23:55;70.30;;;28.23;;
57457;SDS011;43304;52.332;6.110;2023-04-01T03:26:22;80.72;;;29.65;;
57457;SDS011;43304;52.332;6.110;2023-04-01T03:28:49;103.43;;;31.42;;
57457;SDS011;43304;52.332;6.110;2023-04-01T03:31:16;92.47;;;31.45;;
57457;SDS011;43304;52.332;6.110;2023-04-01T03:33:44;84.05;;;30.10;;
57457;SDS011;43304;52.332;6.110;2023-04-01T03:36:11;83.33;;;29.80;;
57457;SDS011;43304;52.332;6.110;2023-04-01T03:38:42;81.30;;;30.27;;
57457;SDS011;43304;52.332;6.110;2023-04-01T03:41:14;95.17;;;29.83;;
57457;SDS011;43304;52.332;6.110;2023-04-01T03:43:43;90.18;;;30.65;;
57457;SDS011;43304;52.332;6.110;2023-04-01T03:46:10;84.53;;;30.10;;
57457;SDS011;43304;52.332;6.110;2023-04-01T03:48:37;94.03;;;30.35;;
57457;SDS011;43304;52.332;6.110;2023-04-01T03:51:08;105.18;;;32.30;;
57457;SDS011;43304;52.332;6.110;2023-04-01T03:53:35;83.22;;;30.23;;
57457;SDS011;43304;52.332;6.110;2023-04-01T03:56:05;93.15;;;31.05;;
57457;SDS011;43304;52.332;6.110;2023-04-01T03:58:33;107.80;;;32.17;;
57457;SDS011;43304;52.332;6.110;2023-04-01T04:01:00;95.90;;;31.85;;
57457;SDS011;43304;52.332;6.110;2023-04-01T04:03:27;86.00;;;29.75;;
57457;SDS011;43304;52.332;6.110;2023-04-01T04:05:55;90.60;;;31.57;;
57457;SDS011;43304;52.332;6.110;2023-04-01T04:08:22;90.28;;;31.73;;
57457;SDS011;43304;52.332;6.110;2023-04-01T04:10:55;97.23;;;32.37;;
57457;SDS011;43304;52.332;6.110;2023-04-01T04:13:22;100.65;;;32.20;;
57457;SDS011;43304;52.332;6.110;2023-04-01T04:15:49;110.15;;;33.33;;
57457;SDS011;43304;52.332;6.110;2023-04-01T04:18:16;105.22;;;32.63;;
57457;SDS011;43304;52.332;6.110;2023-04-01T04:20:44;116.05;;;33.58;;
57457;SDS011;43304;52.332;6.110;2023-04-01T04:23:13;111.75;;;32.60;;
57457;SDS011;43304;52.332;6.110;2023-04-01T04:25:41;103.20;;;31.63;;
57457;SDS011;43304;52.332;6.110;2023-04-01T04:28:08;89.95;;;30.70;;
57457;SDS011;43304;52.332;6.110;2023-04-01T04:30:35;104.07;;;29.85;;
57457;SDS011;43304;52.332;6.110;2023-04-01T04:33:02;91.00;;;28.88;;
57457;SDS011;43304;52.332;6.110;2023-04-01T04:35:29;96.00;;;29.03;;
57457;SDS011;43304;52.332;6.110;2023-04-01T04:37:56;105.33;;;29.87;;
57457;SDS011;43304;52.332;6.110;2023-04-01T04:40:22;113.23;;;29.60;;
57457;SDS011;43304;52.332;6.110;2023-04-01T04:42:49;99.22;;;28.63;;
57457;SDS011;43304;52.332;6.110;2023-04-01T04:45:16;87.13;;;26.52;;
57457;SDS011;43304;52.332;6.110;2023-04-01T04:47:43;91.97;;;27.65;;
57457;SDS011;43304;52.332;6.110;2023-04-01T04:50:10;89.93;;;27.48;;
57457;SDS011;43304;52.332;6.110;2023-04-01T04:52:38;95.95;;;28.05;;
57457;SDS011;43304;52.332;6.110;2023-04-01T04:55:05;103.10;;;29.25;;
57457;SDS011;43304;52.332;6.110;2023-04-01T04:57:32;127.82;;;29.58;;
57457;SDS011;43304;52.332;6.110;2023-04-01T04:59:59;109.68;;;27.77;;
57457;SDS011;43304;52.332;6.110;2023-04-01T05:02:26;103.18;;;27.70;;
57457;SDS011;43304;52.332;6.110;2023-04-01T05:04:53;128.60;;;28.38;;
57457;SDS011;43304;52.332;6.110;2023-04-01T05:07:21;101.88;;;28.45;;
57457;SDS011;43304;52.332;6.110;2023-04-01T05:09:48;99.18;;;27.73;;
57457;SDS011;43304;52.332;6.110;2023-04-01T05:12:15;120.15;;;29.63;;
57457;SDS011;43304;52.332;6.110;2023-04-01T05:14:42;135.15;;;30.17;;
57457;SDS011;43304;52.332;6.110;2023-04-01T05:17:09;120.88;;;27.85;;
57457;SDS011;43304;52.332;6.110;2023-04-01T05:19:39;114.40;;;28.47;;
57457;SDS011;43304;52.332;6.110;2023-04-01T05:22:06;80.57;;;26.15;;
57457;SDS011;43304;52.332;6.110;2023-04-01T05:24:34;150.23;;;29.50;;
57457;SDS011;43304;52.332;6.110;2023-04-01T05:27:01;126.03;;;30.08;;
57457;SDS011;43304;52.332;6.110;2023-04-01T05:29:28;97.55;;;27.58;;
57457;SDS011;43304;52.332;6.110;2023-04-01T05:31:55;127.97;;;28.88;;
57457;SDS011;43304;52.332;6.110;2023-04-01T05:34:22;112.00;;;28.52;;
57457;SDS011;43304;52.332;6.110;2023-04-01T05:36:49;107.22;;;27.98;;
57457;SDS011;43304;52.332;6.110;2023-04-01T05:39:16;97.70;;;27.42;;
57457;SDS011;43304;52.332;6.110;2023-04-01T05:41:43;104.85;;;27.63;;
57457;SDS011;43304;52.332;6.110;2023-04-01T05:44:11;108.85;;;28.67;;
57457;SDS011;43304;52.332;6.110;2023-04-01T05:46:39;85.50;;;26.38;;
57457;SDS011;43304;52.332;6.110;2023-04-01T05:49:06;90.32;;;26.10;;
57457;SDS011;43304;52.332;6.110;2023-04-01T05:51:33;93.03;;;27.52;;
57457;SDS011;43304;52.332;6.110;2023-04-01T05:54:00;79.70;;;25.75;;
57457;SDS011;43304;52.332;6.110;2023-04-01T05:56:27;109.53;;;28.38;;
57457;SDS011;43304;52.332;6.110;2023-04-01T05:58:54;117.63;;;28.75;;
57457;SDS011;43304;52.332;6.110;2023-04-01T06:01:21;91.17;;;26.50;;
57457;SDS011;43304;52.332;6.110;2023-04-01T06:03:48;111.25;;;28.23;;
57457;SDS011;43304;52.332;6.110;2023-04-01T06:06:16;138.73;;;30.00;;
57457;SDS011;43304;52.332;6.110;2023-04-01T06:08:56;141.13;;;30.53;;
57457;SDS011;43304;52.332;6.110;2023-04-01T06:19:53;137.68;;;31.17;;
57457;SDS011;43304;52.332;6.110;2023-04-01T06:26:04;162.68;;;34.13;;
57457;SDS011;43304;52.332;6.110;2023-04-01T06:34:27;126.93;;;33.53;;
57457;SDS011;43304;52.332;6.110;2023-04-01T06:37:37;146.27;;;34.50;;
57457;SDS011;43304;52.332;6.110;2023-04-01T06:45:48;146.48;;;32.08;;
57457;SDS011;43304;52.332;6.110;2023-04-01T06:48:35;140.57;;;32.95;;
57457;SDS011;43304;52.332;6.110;2023-04-01T06:54:04;144.95;;;31.05;;
57457;SDS011;43304;52.332;6.110;2023-04-01T06:56:36;141.65;;;30.27;;
57457;SDS011;43304;52.332;6.110;2023-04-01T06:59:05;127.05;;;29.75;;
57457;SDS011;43304;52.332;6.110;2023-04-01T07:01:44;150.27;;;30.20;;
57457;SDS011;43304;52.332;6.110;2023-04-01T07:06:50;138.60;;;28.80;;
57457;SDS011;43304;52.332;6.110;2023-04-01T07:09:28;136.18;;;28.95;;
57457;SDS011;43304;52.332;6.110;2023-04-01T07:12:32;133.23;;;28.85;;
57457;SDS011;43304;52.332;6.110;2023-04-01T07:14:48;136.30;;;28.30;;
57457;SDS011;43304;52.332;6.110;2023-04-01T07:17:17;141.90;;;28.38;;
57457;SDS011;43304;52.332;6.110;2023-04-01T07:19:57;148.83;;;28.57;;
57457;SDS011;43304;52.332;6.110;2023-04-01T07:22:31;130.40;;;26.80;;
57457;SDS011;43304;52.332;6.110;2023-04-01T07:25:01;117.88;;;25.52;;
57457;SDS011;43304;52.332;6.110;2023-04-01T07:27:38;121.63;;;25.75;;
57457;SDS011;43304;52.332;6.110;2023-04-01T07:30:12;134.00;;;25.45;;
57457;SDS011;43304;52.332;6.110;2023-04-01T07:35:28;115.75;;;23.77;;
57457;SDS011;43304;52.332;6.110;2023-04-01T07:38:02;105.27;;;23.80;;
57457;SDS011;43304;52.332;6.110;2023-04-01T07:43:11;110.13;;;22.95;;
57457;SDS011;43304;52.332;6.110;2023-04-01T07:45:59;110.45;;;23.02;;
57457;SDS011;43304;52.332;6.110;2023-04-01T07:51:23;88.93;;;21.42;;
57457;SDS011;43304;52.332;6.110;2023-04-01T07:54:09;82.25;;;20.15;;
57457;SDS011;43304;52.332;6.110;2023-04-01T08:02:00;74.38;;;18.15;;
57457;SDS011;43304;52.332;6.110;2023-04-01T08:04:34;67.28;;;16.70;;
57457;SDS011;43304;52.332;6.110;2023-04-01T08:07:23;65.33;;;16.30;;
57457;SDS011;43304;52.332;6.110;2023-04-01T08:17:52;55.75;;;14.10;;
57457;SDS011;43304;52.332;6.110;2023-04-01T08:20:26;53.17;;;13.88;;
57457;SDS011;43304;52.332;6.110;2023-04-01T08:22:58;50.23;;;14.10;;
57457;SDS011;43304;52.332;6.110;2023-04-01T08:25:30;51.13;;;14.40;;
57457;SDS011;43304;52.332;6.110;2023-04-01T08:31:03;49.00;;;14.60;;
57457;SDS011;43304;52.332;6.110;2023-04-01T08:33:31;52.33;;;14.38;;
57457;SDS011;43304;52.332;6.110;2023-04-01T08:36:02;52.55;;;14.68;;
57457;SDS011;43304;52.332;6.110;2023-04-01T08:38:40;42.85;;;14.18;;
57457;SDS011;43304;52.332;6.110;2023-04-01T08:41:42;35.95;;;12.55;;
57457;SDS011;43304;52.332;6.110;2023-04-01T08:50:02;37.00;;;13.35;;
57457;SDS011;43304;52.332;6.110;2023-04-01T08:52:36;37.22;;;12.23;;
57457;SDS011;43304;52.332;6.110;2023-04-01T09:03:22;27.55;;;11.00;;
57457;SDS011;43304;52.332;6.110;2023-04-01T09:25:32;20.52;;;10.30;;
57457;SDS011;43304;52.332;6.110;2023-04-01T09:36:02;14.00;;;8.67;;
57457;SDS011;43304;52.332;6.110;2023-04-01T09:38:40;14.50;;;9.13;;
57457;SDS011;43304;52.332;6.110;2023-04-01T09:41:32;11.80;;;7.75;;
57457;SDS011;43304;52.332;6.110;2023-04-01T09:44:05;12.00;;;8.23;;
57457;SDS011;43304;52.332;6.110;2023-04-01T09:55:27;9.75;;;6.20;;
57457;SDS011;43304;52.332;6.110;2023-04-01T10:17:52;12.00;;;4.55;;
57457;SDS011;43304;52.332;6.110;2023-04-01T10:23:32;16.20;;;6.03;;
57457;SDS011;43304;52.332;6.110;2023-04-01T10:27:07;17.13;;;6.82;;
57457;SDS011;43304;52.332;6.110;2023-04-01T10:29:43;21.17;;;6.75;;
57457;SDS011;43304;52.332;6.110;2023-04-01T10:35:50;21.33;;;7.85;;
57457;SDS011;43304;52.332;6.110;2023-04-01T10:44:02;23.48;;;7.60;;
57457;SDS011;43304;52.332;6.110;2023-04-01T10:56:01;22.60;;;8.35;;
57457;SDS011;43304;52.332;6.110;2023-04-01T11:01:52;12.00;;;7.15;;
57457;SDS011;43304;52.332;6.110;2023-04-01T11:24:43;9.02;;;4.18;;
57457;SDS011;43304;52.332;6.110;2023-04-01T11:32:42;10.48;;;5.57;;
57457;SDS011;43304;52.332;6.110;2023-04-01T11:43:29;21.27;;;6.90;;
57457;SDS011;43304;52.332;6.110;2023-04-01T11:46:12;16.77;;;7.20;;
57457;SDS011;43304;52.332;6.110;2023-04-01T11:54:14;23.92;;;8.45;;
57457;SDS011;43304;52.332;6.110;2023-04-01T12:05:38;9.15;;;5.45;;
57457;SDS011;43304;52.332;6.110;2023-04-01T12:08:21;9.73;;;5.40;;
57457;SDS011;43304;52.332;6.110;2023-04-01T12:11:10;6.97;;;4.55;;
57457;SDS011;43304;52.332;6.110;2023-04-01T12:19:15;5.32;;;4.00;;
57457;SDS011;43304;52.332;6.110;2023-04-01T12:21:59;6.10;;;4.28;;
57457;SDS011;43304;52.332;6.110;2023-04-01T12:41:29;7.25;;;5.25;;
57457;SDS011;43304;52.332;6.110;2023-04-01T12:44:19;6.87;;;5.17;;
57457;SDS011;43304;52.332;6.110;2023-04-01T12:49:52;7.95;;;6.25;;
57457;SDS011;43304;52.332;6.110;2023-04-01T12:52:38;7.85;;;6.00;;
57457;SDS011;43304;52.332;6.110;2023-04-01T12:55:43;9.32;;;6.95;;
57457;SDS011;43304;52.332;6.110;2023-04-01T12:58:30;9.10;;;7.10;;
57457;SDS011;43304;52.332;6.110;2023-04-01T13:12:25;8.55;;;6.47;;
57457;SDS011;43304;52.332;6.110;2023-04-01T13:20:23;9.48;;;7.00;;
57457;SDS011;43304;52.332;6.110;2023-04-01T13:26:09;10.75;;;7.70;;
57457;SDS011;43304;52.332;6.110;2023-04-01T13:28:43;11.07;;;8.25;;
57457;SDS011;43304;52.332;6.110;2023-04-01T13:37:18;12.02;;;8.95;;
57457;SDS011;43304;52.332;6.110;2023-04-01T13:42:19;9.48;;;8.38;;
57457;SDS011;43304;52.332;6.110;2023-04-01T13:44:54;10.97;;;8.67;;
57457;SDS011;43304;52.332;6.110;2023-04-01T13:56:23;11.07;;;9.80;;
57457;SDS011;43304;52.332;6.110;2023-04-01T13:59:06;11.65;;;9.75;;
57457;SDS011;43304;52.332;6.110;2023-04-01T14:04:45;11.75;;;10.10;;
57457;SDS011;43304;52.332;6.110;2023-04-01T14:07:32;12.07;;;10.27;;
57457;SDS011;43304;52.332;6.110;2023-04-01T14:10:32;13.57;;;11.02;;
57457;SDS011;43304;52.332;6.110;2023-04-01T14:13:18;13.20;;;11.82;;
57457;SDS011;43304;52.332;6.110;2023-04-01T14:24:36;10.63;;;9.10;;
57457;SDS011;43304;52.332;6.110;2023-04-01T14:27:24;10.30;;;8.88;;
57457;SDS011;43304;52.332;6.110;2023-04-01T14:35:46;8.57;;;7.70;;
57457;SDS011;43304;52.332;6.110;2023-04-01T14:38:35;9.60;;;8.60;;
57457;SDS011;43304;52.332;6.110;2023-04-01T14:44:11;8.95;;;8.05;;
57457;SDS011;43304;52.332;6.110;2023-04-01T14:49:46;8.20;;;7.40;;
57457;SDS011;43304;52.332;6.110;2023-04-01T14:52:22;8.65;;;7.85;;
57457;SDS011;43304;52.332;6.110;2023-04-01T14:54:54;9.00;;;8.10;;
57457;SDS011;43304;52.332;6.110;2023-04-01T14:57:28;9.10;;;8.10;;
57457;SDS011;43304;52.332;6.110;2023-04-01T15:02:36;8.93;;;8.00;;
57457;SDS011;43304;52.332;6.110;2023-04-01T15:08:15;6.80;;;6.20;;
57457;SDS011;43304;52.332;6.110;2023-04-01T15:22:15;7.68;;;6.97;;
57457;SDS011;43304;52.332;6.110;2023-04-01T15:30:13;6.60;;;6.00;;
57457;SDS011;43304;52.332;6.110;2023-04-01T15:32:55;6.82;;;6.22;;
57457;SDS011;43304;52.332;6.110;2023-04-01T15:35:39;6.80;;;6.20;;
57457;SDS011;43304;52.332;6.110;2023-04-01T15:43:41;7.38;;;6.65;;
57457;SDS011;43304;52.332;6.110;2023-04-01T15:49:51;7.43;;;6.72;;
57457;SDS011;43304;52.332;6.110;2023-04-01T15:52:35;7.68;;;6.97;;
57457;SDS011;43304;52.332;6.110;2023-04-01T15:55:26;7.88;;;7.13;;
57457;SDS011;43304;52.332;6.110;2023-04-01T15:58:18;7.95;;;7.25;;
57457;SDS011;43304;52.332;6.110;2023-04-01T16:09:06;8.60;;;7.70;;
57457;SDS011;43304;52.332;6.110;2023-04-01T16:11:46;8.38;;;7.68;;
57457;SDS011;43304;52.332;6.110;2023-04-01T16:19:47;8.45;;;7.70;;
57457;SDS011;43304;52.332;6.110;2023-04-01T16:27:36;9.15;;;8.35;;
57457;SDS011;43304;52.332;6.110;2023-04-01T16:30:22;9.90;;;9.00;;
57457;SDS011;43304;52.332;6.110;2023-04-01T16:33:20;9.52;;;8.63;;
57457;SDS011;43304;52.332;6.110;2023-04-01T16:36:07;10.55;;;9.55;;
57457;SDS011;43304;52.332;6.110;2023-04-01T16:39:26;10.73;;;9.73;;
57457;SDS011;43304;52.332;6.110;2023-04-01T16:41:41;10.95;;;9.95;;
57457;SDS011;43304;52.332;6.110;2023-04-01T16:44:18;11.57;;;10.50;;
57457;SDS011;43304;52.332;6.110;2023-04-01T16:46:51;11.13;;;10.13;;
57457;SDS011;43304;52.332;6.110;2023-04-01T16:49:24;10.57;;;9.68;;
57457;SDS011;43304;52.332;6.110;2023-04-01T16:52:13;11.70;;;10.65;;
57457;SDS011;43304;52.332;6.110;2023-04-01T16:54:58;11.63;;;10.52;;
57457;SDS011;43304;52.332;6.110;2023-04-01T16:57:28;11.50;;;10.50;;
57457;SDS011;43304;52.332;6.110;2023-04-01T17:00:14;10.75;;;9.68;;
57457;SDS011;43304;52.332;6.110;2023-04-01T17:02:44;10.45;;;9.45;;
57457;SDS011;43304;52.332;6.110;2023-04-01T17:05:17;10.15;;;9.05;;
57457;SDS011;43304;52.332;6.110;2023-04-01T17:19:13;11.05;;;9.95;;
57457;SDS011;43304;52.332;6.110;2023-04-01T17:24:36;10.93;;;9.73;;
57457;SDS011;43304;52.332;6.110;2023-04-01T17:30:19;10.57;;;9.65;;
57457;SDS011;43304;52.332;6.110;2023-04-01T17:51:58;7.30;;;6.70;;
57457;SDS011;43304;52.332;6.110;2023-04-01T18:00:26;7.87;;;7.17;;
57457;SDS011;43304;52.332;6.110;2023-04-01T18:09:37;8.23;;;7.43;;
57457;SDS011;43304;52.332;6.110;2023-04-01T18:15:12;10.37;;;9.37;;
57457;SDS011;43304;52.332;6.110;2023-04-01T18:25:55;7.15;;;6.53;;
57457;SDS011;43304;52.332;6.110;2023-04-01T18:31:17;7.50;;;6.88;;
57457;SDS011;43304;52.332;6.110;2023-04-01T18:33:53;7.93;;;7.22;;
57457;SDS011;43304;52.332;6.110;2023-04-01T18:36:38;8.57;;;7.78;;
57457;SDS011;43304;52.332;6.110;2023-04-01T18:39:11;8.93;;;7.70;;
57457;SDS011;43304;52.332;6.110;2023-04-01T18:41:47;9.32;;;8.32;;
57457;SDS011;43304;52.332;6.110;2023-04-01T18:44:23;9.73;;;8.77;;
57457;SDS011;43304;52.332;6.110;2023-04-01T18:50:06;10.80;;;9.70;;
57457;SDS011;43304;52.332;6.110;2023-04-01T18:56:22;11.73;;;10.63;;
57457;SDS011;43304;52.332;6.110;2023-04-01T19:07:25;13.90;;;12.60;;
57457;SDS011;43304;52.332;6.110;2023-04-01T19:10:00;15.50;;;14.00;;
57457;SDS011;43304;52.332;6.110;2023-04-01T19:13:38;15.37;;;13.93;;
57457;SDS011;43304;52.332;6.110;2023-04-01T19:15:41;15.85;;;14.18;;
57457;SDS011;43304;52.332;6.110;2023-04-01T19:18:28;17.45;;;15.65;;
57457;SDS011;43304;52.332;6.110;2023-04-01T19:24:10;19.15;;;17.13;;
57457;SDS011;43304;52.332;6.110;2023-04-01T19:35:42;20.42;;;18.38;;
57457;SDS011;43304;52.332;6.110;2023-04-01T19:43:12;18.83;;;16.90;;
57457;SDS011;43304;52.332;6.110;2023-04-01T19:45:50;19.55;;;17.45;;
57457;SDS011;43304;52.332;6.110;2023-04-01T19:51:16;20.45;;;18.27;;
57457;SDS011;43304;52.332;6.110;2023-04-01T19:54:01;18.40;;;16.60;;
57457;SDS011;43304;52.332;6.110;2023-04-01T19:56:50;19.60;;;17.60;;
57457;SDS011;43304;52.332;6.110;2023-04-01T19:59:19;20.23;;;18.02;;
57457;SDS011;43304;52.332;6.110;2023-04-01T20:02:50;20.00;;;18.00;;
57457;SDS011;43304;52.332;6.110;2023-04-01T20:04:57;19.93;;;17.90;;
57457;SDS011;43304;52.332;6.110;2023-04-01T20:07:31;18.98;;;17.17;;
57457;SDS011;43304;52.332;6.110;2023-04-01T20:17:47;17.90;;;16.20;;
57457;SDS011;43304;52.332;6.110;2023-04-01T20:20:24;19.25;;;17.35;;
57457;SDS011;43304;52.332;6.110;2023-04-01T20:23:23;22.23;;;18.55;;
57457;SDS011;43304;52.332;6.110;2023-04-01T20:25:59;19.08;;;16.95;;
57457;SDS011;43304;52.332;6.110;2023-04-01T20:31:30;17.75;;;15.88;;
57457;SDS011;43304;52.332;6.110;2023-04-01T20:36:58;17.77;;;15.98;;
57457;SDS011;43304;52.332;6.110;2023-04-01T20:42:05;20.55;;;18.13;;
57457;SDS011;43304;52.332;6.110;2023-04-01T20:56:55;18.80;;;16.80;;
57457;SDS011;43304;52.332;6.110;2023-04-01T21:05:21;18.30;;;16.52;;
57457;SDS011;43304;52.332;6.110;2023-04-01T21:07:54;19.23;;;17.13;;
57457;SDS011;43304;52.332;6.110;2023-04-01T21:13:03;20.52;;;17.38;;
57457;SDS011;43304;52.332;6.110;2023-04-01T21:15:48;20.13;;;18.05;;
57457;SDS011;43304;52.332;6.110;2023-04-01T21:18:26;19.92;;;17.85;;
57457;SDS011;43304;52.332;6.110;2023-04-01T21:29:09;21.30;;;18.70;;
57457;SDS011;43304;52.332;6.110;2023-04-01T21:34:40;20.10;;;18.00;;
57457;SDS011;43304;52.332;6.110;2023-04-01T21:45:06;23.70;;;21.17;;
57457;SDS011;43304;52.332;6.110;2023-04-01T21:48:40;23.48;;;20.92;;
57457;SDS011;43304;52.332;6.110;2023-04-01T22:05:07;23.98;;;20.77;;
57457;SDS011;43304;52.332;6.110;2023-04-01T22:13:16;23.92;;;21.23;;
57457;SDS011;43304;52.332;6.110;2023-04-01T22:15:49;25.52;;;22.80;;
57457;SDS011;43304;52.332;6.110;2023-04-01T22:18:26;25.38;;;22.58;;
57457;SDS011;43304;52.332;6.110;2023-04-01T22:21:08;28.42;;;23.95;;
57457;SDS011;43304;52.332;6.110;2023-04-01T22:23:42;25.83;;;23.08;;
57457;SDS011;43304;52.332;6.110;2023-04-01T22:26:22;27.88;;;23.45;;
57457;SDS011;43304;52.332;6.110;2023-04-01T22:28:54;28.63;;;24.33;;
57457;SDS011;43304;52.332;6.110;2023-04-01T22:31:59;30.30;;;24.38;;
57457;SDS011;43304;52.332;6.110;2023-04-01T22:37:23;29.02;;;23.67;;
57457;SDS011;43304;52.332;6.110;2023-04-01T22:40:40;26.83;;;23.25;;
57457;SDS011;43304;52.332;6.110;2023-04-01T22:50:53;29.27;;;26.05;;
57457;SDS011;43304;52.332;6.110;2023-04-01T22:53:45;31.40;;;26.38;;
57457;SDS011;43304;52.332;6.110;2023-04-01T22:56:33;29.70;;;26.30;;
57457;SDS011;43304;52.332;6.110;2023-04-01T22:59:08;29.50;;;25.23;;
57457;SDS011;43304;52.332;6.110;2023-04-01T23:01:41;29.27;;;26.00;;
57457;SDS011;43304;52.332;6.110;2023-04-01T23:04:14;29.33;;;25.30;;
57457;SDS011;43304;52.332;6.110;2023-04-01T23:06:46;28.10;;;24.98;;
57457;SDS011;43304;52.332;6.110;2023-04-01T23:09:25;28.50;;;25.50;;
57457;SDS011;43304;52.332;6.110;2023-04-01T23:11:58;27.42;;;24.52;;
57457;SDS011;43304;52.332;6.110;2023-04-01T23:19:54;27.77;;;24.77;;
57457;SDS011;43304;52.332;6.110;2023-04-01T23:22:42;29.05;;;24.85;;
57457;SDS011;43304;52.332;6.110;2023-04-01T23:33:10;25.93;;;22.90;;
57457;SDS011;43304;52.332;6.110;2023-04-01T23:35:54;25.45;;;22.65;;
57457;SDS011;43304;52.332;6.110;2023-04-01T23:38:24;25.15;;;22.45;;
57457;SDS011;43304;52.332;6.110;2023-04-01T23:40:53;24.50;;;21.88;;
57457;SDS011;43304;52.332;6.110;2023-04-01T23:43:25;24.02;;;21.42;;
57457;SDS011;43304;52.332;6.110;2023-04-01T23:46:01;24.15;;;21.17;;
57457;SDS011;43304;52.332;6.110;2023-04-01T23:48:40;23.67;;;20.65;;
57457;SDS011;43304;52.332;6.110;2023-04-01T23:51:21;24.17;;;21.48;;
57457;SDS011;43304;52.332;6.110;2023-04-01T23:54:34;23.67;;;21.23;;
57457;SDS011;43304;52.332;6.110;2023-04-01T23:56:44;21.85;;;19.55;;
57457;SDS011;43304;52.332;6.110;2023-04-01T23:59:17;24.90;;;20.55;;
